sensor_id;sensor_type;location;lat;lon;timestamp;temperature;humidity
26589;DHT22;14235;48.532;8.722;2022-09-25T00:00:46;12.10;99.90
26589;DHT22;14235;48.532;8.722;2022-09-25T00:03:14;12.10;99.90
26589;DHT22;14235;48.532;8.722;2022-09-25T00:05:42;12.10;99.90
26589;DHT22;14235;48.532;8.722;2022-09-25T00:08:08;12.10;99.90
26589;DHT22;14235;48.532;8.722;2022-09-25T00:10:38;12.10;99.90
26589;DHT22;14235;48.532;8.722;2022-09-25T00:13:04;12.10;99.90
26589;DHT22;14235;48.532;8.722;2022-09-25T00:15:29;12.10;99.90
26589;DHT22;14235;48.532;8.722;2022-09-25T00:17:55;12.10;99.90
26589;DHT22;14235;48.532;8.722;2022-09-25T00:20:21;12.00;99.90
26589;DHT22;14235;48.532;8.722;2022-09-25T00:22:48;12.10;99.90
26589;DHT22;14235;48.532;8.722;2022-09-25T00:25:14;12.00;99.90
26589;DHT22;14235;48.532;8.722;2022-09-25T00:27:42;12.00;99.90
26589;DHT22;14235;48.532;8.722;2022-09-25T00:30:10;11.90;99.90
26589;DHT22;14235;48.532;8.722;2022-09-25T00:32:36;12.00;99.90
26589;DHT22;14235;48.532;8.722;2022-09-25T00:35:02;12.00;99.90
26589;DHT22;14235;48.532;8.722;2022-09-25T00:37:28;12.00;99.90
26589;DHT22;14235;48.532;8.722;2022-09-25T00:39:54;11.90;99.90
26589;DHT22;14235;48.532;8.722;2022-09-25T00:42:22;11.90;99.90
26589;DHT22;14235;48.532;8.722;2022-09-25T00:45:05;11.90;99.90
26589;DHT22;14235;48.532;8.722;2022-09-25T00:50:36;11.90;99.90
26589;DHT22;14235;48.532;8.722;2022-09-25T00:53:13;11.90;99.90
26589;DHT22;14235;48.532;8.722;2022-09-25T00:55:42;12.00;99.90
26589;DHT22;14235;48.532;8.722;2022-09-25T00:58:09;11.90;99.90
26589;DHT22;14235;48.532;8.722;2022-09-25T01:00:37;11.80;99.90
26589;DHT22;14235;48.532;8.722;2022-09-25T01:03:03;11.90;99.90
26589;DHT22;14235;48.532;8.722;2022-09-25T01:05:35;11.70;99.90
26589;DHT22;14235;48.532;8.722;2022-09-25T01:08:04;11.70;99.90
26589;DHT22;14235;48.532;8.722;2022-09-25T01:10:30;11.80;99.90
26589;DHT22;14235;48.532;8.722;2022-09-25T01:12:57;11.80;99.90
26589;DHT22;14235;48.532;8.722;2022-09-25T01:15:52;11.80;99.90
26589;DHT22;14235;48.532;8.722;2022-09-25T01:18:52;11.80;99.90
26589;DHT22;14235;48.532;8.722;2022-09-25T01:29:43;11.80;99.90
26589;DHT22;14235;48.532;8.722;2022-09-25T01:37:44;11.70;99.90
26589;DHT22;14235;48.532;8.722;2022-09-25T01:40:24;11.70;99.90
26589;DHT22;14235;48.532;8.722;2022-09-25T01:42:56;11.70;99.90
26589;DHT22;14235;48.532;8.722;2022-09-25T01:48:41;11.70;99.90
26589;DHT22;14235;48.532;8.722;2022-09-25T01:51:24;11.50;99.90
26589;DHT22;14235;48.532;8.722;2022-09-25T01:53:59;11.70;99.90
26589;DHT22;14235;48.532;8.722;2022-09-25T01:56:37;11.60;99.90
26589;DHT22;14235;48.532;8.722;2022-09-25T02:01:41;11.70;99.90
26589;DHT22;14235;48.532;8.722;2022-09-25T02:04:29;11.70;99.90
26589;DHT22;14235;48.532;8.722;2022-09-25T02:07:00;11.60;99.90
26589;DHT22;14235;48.532;8.722;2022-09-25T02:09:36;11.90;99.90
26589;DHT22;14235;48.532;8.722;2022-09-25T02:12:16;11.70;99.90
26589;DHT22;14235;48.532;8.722;2022-09-25T02:14:50;11.70;99.90
26589;DHT22;14235;48.532;8.722;2022-09-25T02:17:28;11.70;99.90
26589;DHT22;14235;48.532;8.722;2022-09-25T02:20:15;11.70;99.90
26589;DHT22;14235;48.532;8.722;2022-09-25T02:23:17;11.80;99.90
26589;DHT22;14235;48.532;8.722;2022-09-25T02:25:47;11.70;99.90
26589;DHT22;14235;48.532;8.722;2022-09-25T02:28:14;11.80;99.90
26589;DHT22;14235;48.532;8.722;2022-09-25T02:30:39;11.60;99.90
26589;DHT22;14235;48.532;8.722;2022-09-25T02:33:05;11.70;99.90
26589;DHT22;14235;48.532;8.722;2022-09-25T02:35:31;11.60;99.90
26589;DHT22;14235;48.532;8.722;2022-09-25T02:37:57;11.60;99.90
26589;DHT22;14235;48.532;8.722;2022-09-25T02:40:45;11.60;99.90
26589;DHT22;14235;48.532;8.722;2022-09-25T02:43:29;11.70;99.90
26589;DHT22;14235;48.532;8.722;2022-09-25T02:46:23;11.70;99.90
26589;DHT22;14235;48.532;8.722;2022-09-25T02:49:03;11.70;99.90
26589;DHT22;14235;48.532;8.722;2022-09-25T02:51:39;11.70;99.90
26589;DHT22;14235;48.532;8.722;2022-09-25T02:54:46;11.70;99.90
26589;DHT22;14235;48.532;8.722;2022-09-25T03:00:00;11.60;99.90
26589;DHT22;14235;48.532;8.722;2022-09-25T03:02:28;11.70;99.90
26589;DHT22;14235;48.532;8.722;2022-09-25T03:04:55;11.80;99.90
26589;DHT22;14235;48.532;8.722;2022-09-25T03:07:23;11.80;99.90
26589;DHT22;14235;48.532;8.722;2022-09-25T03:09:50;11.90;99.90
26589;DHT22;14235;48.532;8.722;2022-09-25T03:12:17;11.80;99.90
26589;DHT22;14235;48.532;8.722;2022-09-25T03:14:43;11.70;99.90
26589;DHT22;14235;48.532;8.722;2022-09-25T03:17:10;11.80;99.90
26589;DHT22;14235;48.532;8.722;2022-09-25T03:19:36;11.80;99.90
26589;DHT22;14235;48.532;8.722;2022-09-25T03:22:02;11.80;99.90
26589;DHT22;14235;48.532;8.722;2022-09-25T03:24:28;11.70;99.90
26589;DHT22;14235;48.532;8.722;2022-09-25T03:26:54;11.80;99.90
26589;DHT22;14235;48.532;8.722;2022-09-25T03:29:20;11.70;99.90
26589;DHT22;14235;48.532;8.722;2022-09-25T03:31:46;11.70;99.90
26589;DHT22;14235;48.532;8.722;2022-09-25T03:36:40;11.60;99.90
26589;DHT22;14235;48.532;8.722;2022-09-25T03:39:06;11.60;99.90
26589;DHT22;14235;48.532;8.722;2022-09-25T03:41:35;11.50;99.90
26589;DHT22;14235;48.532;8.722;2022-09-25T03:44:01;11.60;99.90
26589;DHT22;14235;48.532;8.722;2022-09-25T03:46:29;11.60;99.90
26589;DHT22;14235;48.532;8.722;2022-09-25T03:48:56;11.60;99.90
26589;DHT22;14235;48.532;8.722;2022-09-25T03:51:23;11.60;99.90
26589;DHT22;14235;48.532;8.722;2022-09-25T03:53:49;11.60;99.90
26589;DHT22;14235;48.532;8.722;2022-09-25T03:56:19;11.60;99.90
26589;DHT22;14235;48.532;8.722;2022-09-25T03:58:46;11.70;99.90
26589;DHT22;14235;48.532;8.722;2022-09-25T04:01:13;11.60;99.90
26589;DHT22;14235;48.532;8.722;2022-09-25T04:03:39;11.60;99.90
26589;DHT22;14235;48.532;8.722;2022-09-25T04:06:07;11.60;99.90
26589;DHT22;14235;48.532;8.722;2022-09-25T04:08:34;11.50;99.90
26589;DHT22;14235;48.532;8.722;2022-09-25T04:11:01;11.50;99.90
26589;DHT22;14235;48.532;8.722;2022-09-25T04:13:30;11.50;99.90
26589;DHT22;14235;48.532;8.722;2022-09-25T04:15:57;11.40;99.90
26589;DHT22;14235;48.532;8.722;2022-09-25T04:18:24;11.40;99.90
26589;DHT22;14235;48.532;8.722;2022-09-25T04:20:50;11.40;99.90
26589;DHT22;14235;48.532;8.722;2022-09-25T04:23:16;11.40;99.90
26589;DHT22;14235;48.532;8.722;2022-09-25T04:25:42;11.40;99.90
26589;DHT22;14235;48.532;8.722;2022-09-25T04:28:08;11.40;99.90
26589;DHT22;14235;48.532;8.722;2022-09-25T04:30:35;11.40;99.90
26589;DHT22;14235;48.532;8.722;2022-09-25T04:33:00;11.40;99.90
26589;DHT22;14235;48.532;8.722;2022-09-25T04:35:45;11.40;99.90
26589;DHT22;14235;48.532;8.722;2022-09-25T04:38:11;11.50;99.90
26589;DHT22;14235;48.532;8.722;2022-09-25T04:40:37;11.40;99.90
26589;DHT22;14235;48.532;8.722;2022-09-25T04:43:04;11.20;99.90
26589;DHT22;14235;48.532;8.722;2022-09-25T04:45:33;11.20;99.90
26589;DHT22;14235;48.532;8.722;2022-09-25T04:48:00;11.20;99.90
26589;DHT22;14235;48.532;8.722;2022-09-25T04:50:27;11.20;99.90
26589;DHT22;14235;48.532;8.722;2022-09-25T04:52:52;11.20;99.90
26589;DHT22;14235;48.532;8.722;2022-09-25T04:55:20;11.30;99.90
26589;DHT22;14235;48.532;8.722;2022-09-25T04:57:52;11.30;99.90
26589;DHT22;14235;48.532;8.722;2022-09-25T05:00:19;11.20;99.90
26589;DHT22;14235;48.532;8.722;2022-09-25T05:02:46;11.20;99.90
26589;DHT22;14235;48.532;8.722;2022-09-25T05:05:12;11.30;99.90
26589;DHT22;14235;48.532;8.722;2022-09-25T05:07:39;11.20;99.90
26589;DHT22;14235;48.532;8.722;2022-09-25T05:10:08;11.30;99.90
26589;DHT22;14235;48.532;8.722;2022-09-25T05:12:34;11.20;99.90
26589;DHT22;14235;48.532;8.722;2022-09-25T05:15:00;11.30;99.90
26589;DHT22;14235;48.532;8.722;2022-09-25T05:17:26;11.30;99.90
26589;DHT22;14235;48.532;8.722;2022-09-25T05:19:52;11.30;99.90
26589;DHT22;14235;48.532;8.722;2022-09-25T05:22:20;11.40;99.90
26589;DHT22;14235;48.532;8.722;2022-09-25T05:24:46;11.40;99.90
26589;DHT22;14235;48.532;8.722;2022-09-25T05:27:11;11.40;99.90
26589;DHT22;14235;48.532;8.722;2022-09-25T05:29:39;11.30;99.90
26589;DHT22;14235;48.532;8.722;2022-09-25T05:32:07;11.30;99.90
26589;DHT22;14235;48.532;8.722;2022-09-25T05:34:33;11.30;99.90
26589;DHT22;14235;48.532;8.722;2022-09-25T05:36:59;11.30;99.90
26589;DHT22;14235;48.532;8.722;2022-09-25T05:39:24;11.30;99.90
26589;DHT22;14235;48.532;8.722;2022-09-25T05:41:51;11.20;99.90
26589;DHT22;14235;48.532;8.722;2022-09-25T05:44:16;11.10;99.90
26589;DHT22;14235;48.532;8.722;2022-09-25T05:46:42;11.10;99.90
26589;DHT22;14235;48.532;8.722;2022-09-25T05:51:33;11.10;99.90
26589;DHT22;14235;48.532;8.722;2022-09-25T05:53:59;11.10;99.90
26589;DHT22;14235;48.532;8.722;2022-09-25T05:56:25;11.10;99.90
26589;DHT22;14235;48.532;8.722;2022-09-25T05:58:51;11.20;99.90
26589;DHT22;14235;48.532;8.722;2022-09-25T06:01:18;11.30;99.90
26589;DHT22;14235;48.532;8.722;2022-09-25T06:03:44;11.30;99.90
26589;DHT22;14235;48.532;8.722;2022-09-25T06:06:10;11.30;99.90
26589;DHT22;14235;48.532;8.722;2022-09-25T06:08:35;11.30;99.90
26589;DHT22;14235;48.532;8.722;2022-09-25T06:11:01;11.40;99.90
26589;DHT22;14235;48.532;8.722;2022-09-25T06:13:29;11.30;99.90
26589;DHT22;14235;48.532;8.722;2022-09-25T06:15:56;11.30;99.90
26589;DHT22;14235;48.532;8.722;2022-09-25T06:18:23;11.40;99.90
26589;DHT22;14235;48.532;8.722;2022-09-25T06:20:49;11.40;99.90
26589;DHT22;14235;48.532;8.722;2022-09-25T06:23:16;11.40;99.90
26589;DHT22;14235;48.532;8.722;2022-09-25T06:25:42;11.40;99.90
26589;DHT22;14235;48.532;8.722;2022-09-25T06:28:08;11.40;99.90
26589;DHT22;14235;48.532;8.722;2022-09-25T06:30:35;11.40;99.90
26589;DHT22;14235;48.532;8.722;2022-09-25T06:33:03;11.40;99.90
26589;DHT22;14235;48.532;8.722;2022-09-25T06:35:31;11.40;99.90
26589;DHT22;14235;48.532;8.722;2022-09-25T06:38:00;11.30;99.90
26589;DHT22;14235;48.532;8.722;2022-09-25T06:40:27;11.40;99.90
26589;DHT22;14235;48.532;8.722;2022-09-25T06:42:57;11.40;99.90
26589;DHT22;14235;48.532;8.722;2022-09-25T06:45:22;11.30;99.90
26589;DHT22;14235;48.532;8.722;2022-09-25T06:47:48;11.30;99.90
26589;DHT22;14235;48.532;8.722;2022-09-25T06:50:14;11.40;99.90
26589;DHT22;14235;48.532;8.722;2022-09-25T06:52:43;11.40;99.90
26589;DHT22;14235;48.532;8.722;2022-09-25T06:55:09;11.40;99.90
26589;DHT22;14235;48.532;8.722;2022-09-25T06:57:35;11.50;99.90
26589;DHT22;14235;48.532;8.722;2022-09-25T07:00:05;11.40;99.90
26589;DHT22;14235;48.532;8.722;2022-09-25T07:02:31;11.50;99.90
26589;DHT22;14235;48.532;8.722;2022-09-25T07:05:16;11.50;99.90
26589;DHT22;14235;48.532;8.722;2022-09-25T07:07:43;11.50;99.90
26589;DHT22;14235;48.532;8.722;2022-09-25T07:10:09;11.50;99.90
26589;DHT22;14235;48.532;8.722;2022-09-25T07:12:35;11.50;99.90
26589;DHT22;14235;48.532;8.722;2022-09-25T07:15:03;11.50;99.90
26589;DHT22;14235;48.532;8.722;2022-09-25T07:17:29;11.50;99.90
26589;DHT22;14235;48.532;8.722;2022-09-25T07:19:55;11.60;99.90
26589;DHT22;14235;48.532;8.722;2022-09-25T07:22:20;11.60;99.90
26589;DHT22;14235;48.532;8.722;2022-09-25T07:24:46;11.50;99.90
26589;DHT22;14235;48.532;8.722;2022-09-25T07:27:11;11.60;99.90
26589;DHT22;14235;48.532;8.722;2022-09-25T07:29:37;11.50;99.90
26589;DHT22;14235;48.532;8.722;2022-09-25T07:32:02;11.50;99.90
26589;DHT22;14235;48.532;8.722;2022-09-25T07:34:29;11.60;99.90
26589;DHT22;14235;48.532;8.722;2022-09-25T07:36:55;11.60;99.90
26589;DHT22;14235;48.532;8.722;2022-09-25T07:39:20;11.70;99.90
26589;DHT22;14235;48.532;8.722;2022-09-25T07:41:46;11.70;99.90
26589;DHT22;14235;48.532;8.722;2022-09-25T07:44:12;11.70;99.90
26589;DHT22;14235;48.532;8.722;2022-09-25T07:46:37;11.70;99.90
26589;DHT22;14235;48.532;8.722;2022-09-25T07:49:07;11.80;99.90
26589;DHT22;14235;48.532;8.722;2022-09-25T07:51:33;11.80;99.90
26589;DHT22;14235;48.532;8.722;2022-09-25T07:53:58;11.80;99.90
26589;DHT22;14235;48.532;8.722;2022-09-25T07:56:25;11.80;99.90
26589;DHT22;14235;48.532;8.722;2022-09-25T07:58:54;11.90;99.90
26589;DHT22;14235;48.532;8.722;2022-09-25T08:01:19;11.90;99.90
26589;DHT22;14235;48.532;8.722;2022-09-25T08:03:45;11.90;99.90
26589;DHT22;14235;48.532;8.722;2022-09-25T08:06:11;12.00;99.90
26589;DHT22;14235;48.532;8.722;2022-09-25T08:08:42;12.10;99.90
26589;DHT22;14235;48.532;8.722;2022-09-25T08:11:12;12.10;99.90
26589;DHT22;14235;48.532;8.722;2022-09-25T08:13:39;12.10;99.90
26589;DHT22;14235;48.532;8.722;2022-09-25T08:16:07;12.20;99.90
26589;DHT22;14235;48.532;8.722;2022-09-25T08:18:36;12.20;99.90
26589;DHT22;14235;48.532;8.722;2022-09-25T08:21:04;12.30;99.90
26589;DHT22;14235;48.532;8.722;2022-09-25T08:23:30;12.20;99.90
26589;DHT22;14235;48.532;8.722;2022-09-25T08:25:57;12.30;99.90
26589;DHT22;14235;48.532;8.722;2022-09-25T08:28:22;12.40;99.90
26589;DHT22;14235;48.532;8.722;2022-09-25T08:30:48;12.50;99.90
26589;DHT22;14235;48.532;8.722;2022-09-25T08:33:14;12.50;99.90
26589;DHT22;14235;48.532;8.722;2022-09-25T08:35:40;12.50;99.90
26589;DHT22;14235;48.532;8.722;2022-09-25T08:38:07;12.60;99.90
26589;DHT22;14235;48.532;8.722;2022-09-25T08:40:37;12.50;99.90
26589;DHT22;14235;48.532;8.722;2022-09-25T08:43:04;12.60;99.90
26589;DHT22;14235;48.532;8.722;2022-09-25T08:45:34;12.70;99.90
26589;DHT22;14235;48.532;8.722;2022-09-25T08:48:26;12.70;99.90
26589;DHT22;14235;48.532;8.722;2022-09-25T08:51:12;12.80;99.90
26589;DHT22;14235;48.532;8.722;2022-09-25T08:53:38;12.80;99.90
26589;DHT22;14235;48.532;8.722;2022-09-25T08:56:05;12.80;99.90
26589;DHT22;14235;48.532;8.722;2022-09-25T08:58:44;12.80;99.90
26589;DHT22;14235;48.532;8.722;2022-09-25T09:01:15;12.80;99.90
26589;DHT22;14235;48.532;8.722;2022-09-25T09:06:16;12.90;99.90
26589;DHT22;14235;48.532;8.722;2022-09-25T09:08:46;13.00;99.90
26589;DHT22;14235;48.532;8.722;2022-09-25T09:11:27;13.00;99.90
26589;DHT22;14235;48.532;8.722;2022-09-25T09:14:05;13.10;99.90
26589;DHT22;14235;48.532;8.722;2022-09-25T09:16:40;13.10;99.90
26589;DHT22;14235;48.532;8.722;2022-09-25T09:19:08;13.20;99.90
26589;DHT22;14235;48.532;8.722;2022-09-25T09:21:56;13.30;99.90
26589;DHT22;14235;48.532;8.722;2022-09-25T09:27:50;13.30;99.90
26589;DHT22;14235;48.532;8.722;2022-09-25T09:30:22;13.40;99.90
26589;DHT22;14235;48.532;8.722;2022-09-25T09:56:52;13.70;99.90
26589;DHT22;14235;48.532;8.722;2022-09-25T09:59:24;13.70;99.90
26589;DHT22;14235;48.532;8.722;2022-09-25T10:02:02;13.80;99.90
26589;DHT22;14235;48.532;8.722;2022-09-25T10:04:34;13.80;99.90
26589;DHT22;14235;48.532;8.722;2022-09-25T10:07:12;13.80;99.90
26589;DHT22;14235;48.532;8.722;2022-09-25T10:09:39;13.90;99.90
26589;DHT22;14235;48.532;8.722;2022-09-25T10:12:34;14.00;99.90
26589;DHT22;14235;48.532;8.722;2022-09-25T10:15:05;14.00;99.90
26589;DHT22;14235;48.532;8.722;2022-09-25T10:17:37;14.00;99.90
26589;DHT22;14235;48.532;8.722;2022-09-25T10:20:18;14.10;99.90
26589;DHT22;14235;48.532;8.722;2022-09-25T10:22:45;14.00;99.90
26589;DHT22;14235;48.532;8.722;2022-09-25T10:25:11;14.10;99.90
26589;DHT22;14235;48.532;8.722;2022-09-25T10:27:39;14.10;99.90
26589;DHT22;14235;48.532;8.722;2022-09-25T10:32:56;14.10;99.90
26589;DHT22;14235;48.532;8.722;2022-09-25T10:35:47;14.20;99.90
26589;DHT22;14235;48.532;8.722;2022-09-25T10:40:56;14.40;99.90
26589;DHT22;14235;48.532;8.722;2022-09-25T10:43:23;14.30;99.90
26589;DHT22;14235;48.532;8.722;2022-09-25T10:46:03;14.40;99.90
26589;DHT22;14235;48.532;8.722;2022-09-25T10:48:36;14.50;99.90
26589;DHT22;14235;48.532;8.722;2022-09-25T10:51:21;14.50;99.90
26589;DHT22;14235;48.532;8.722;2022-09-25T10:53:50;14.60;99.90
26589;DHT22;14235;48.532;8.722;2022-09-25T10:56:21;14.70;99.90
26589;DHT22;14235;48.532;8.722;2022-09-25T10:58:56;14.80;99.90
26589;DHT22;14235;48.532;8.722;2022-09-25T11:01:36;14.90;99.90
26589;DHT22;14235;48.532;8.722;2022-09-25T11:04:29;15.00;99.90
26589;DHT22;14235;48.532;8.722;2022-09-25T11:06:58;15.20;99.90
26589;DHT22;14235;48.532;8.722;2022-09-25T11:09:27;15.10;99.90
26589;DHT22;14235;48.532;8.722;2022-09-25T11:12:24;15.20;99.90
26589;DHT22;14235;48.532;8.722;2022-09-25T11:15:00;15.10;99.90
26589;DHT22;14235;48.532;8.722;2022-09-25T11:17:38;15.10;99.90
26589;DHT22;14235;48.532;8.722;2022-09-25T11:20:23;15.10;99.90
26589;DHT22;14235;48.532;8.722;2022-09-25T11:25:51;14.90;99.90
26589;DHT22;14235;48.532;8.722;2022-09-25T11:31:20;14.80;99.90
26589;DHT22;14235;48.532;8.722;2022-09-25T11:34:26;14.70;99.90
26589;DHT22;14235;48.532;8.722;2022-09-25T11:37:28;14.70;99.90
26589;DHT22;14235;48.532;8.722;2022-09-25T11:40:06;14.60;99.90
26589;DHT22;14235;48.532;8.722;2022-09-25T11:43:07;14.50;99.90
26589;DHT22;14235;48.532;8.722;2022-09-25T11:45:53;14.50;99.90
26589;DHT22;14235;48.532;8.722;2022-09-25T11:48:27;14.40;99.90
26589;DHT22;14235;48.532;8.722;2022-09-25T11:51:17;14.40;99.90
26589;DHT22;14235;48.532;8.722;2022-09-25T11:54:09;14.40;99.90
26589;DHT22;14235;48.532;8.722;2022-09-25T11:56:55;14.40;99.90
26589;DHT22;14235;48.532;8.722;2022-09-25T12:07:48;14.70;99.90
26589;DHT22;14235;48.532;8.722;2022-09-25T12:10:24;14.70;99.90
26589;DHT22;14235;48.532;8.722;2022-09-25T12:23:33;14.70;99.90
26589;DHT22;14235;48.532;8.722;2022-09-25T12:26:15;14.80;99.90
26589;DHT22;14235;48.532;8.722;2022-09-25T12:34:30;15.20;99.90
26589;DHT22;14235;48.532;8.722;2022-09-25T12:37:13;15.30;99.90
26589;DHT22;14235;48.532;8.722;2022-09-25T12:39:52;15.30;99.90
26589;DHT22;14235;48.532;8.722;2022-09-25T12:43:24;15.40;99.90
26589;DHT22;14235;48.532;8.722;2022-09-25T12:45:32;15.40;99.90
26589;DHT22;14235;48.532;8.722;2022-09-25T12:48:13;15.50;99.90
26589;DHT22;14235;48.532;8.722;2022-09-25T12:51:04;15.30;99.90
26589;DHT22;14235;48.532;8.722;2022-09-25T12:53:40;15.30;99.90
26589;DHT22;14235;48.532;8.722;2022-09-25T12:56:41;15.30;99.90
26589;DHT22;14235;48.532;8.722;2022-09-25T12:59:42;15.40;99.90
26589;DHT22;14235;48.532;8.722;2022-09-25T13:02:23;15.50;99.90
26589;DHT22;14235;48.532;8.722;2022-09-25T13:07:41;15.50;99.90
26589;DHT22;14235;48.532;8.722;2022-09-25T13:10:39;15.60;99.90
26589;DHT22;14235;48.532;8.722;2022-09-25T13:13:14;15.50;99.90
26589;DHT22;14235;48.532;8.722;2022-09-25T13:15:47;15.50;99.90
26589;DHT22;14235;48.532;8.722;2022-09-25T13:18:21;15.50;99.90
26589;DHT22;14235;48.532;8.722;2022-09-25T13:20:50;15.60;99.90
26589;DHT22;14235;48.532;8.722;2022-09-25T13:23:35;15.60;99.90
26589;DHT22;14235;48.532;8.722;2022-09-25T13:26:11;15.60;99.90
26589;DHT22;14235;48.532;8.722;2022-09-25T13:28:45;15.60;99.90
26589;DHT22;14235;48.532;8.722;2022-09-25T13:31:19;15.60;99.90
26589;DHT22;14235;48.532;8.722;2022-09-25T13:38:57;15.70;99.90
26589;DHT22;14235;48.532;8.722;2022-09-25T13:41:55;15.70;99.90
26589;DHT22;14235;48.532;8.722;2022-09-25T14:00:24;16.00;99.90
26589;DHT22;14235;48.532;8.722;2022-09-25T14:02:58;16.10;99.90
26589;DHT22;14235;48.532;8.722;2022-09-25T14:05:32;16.00;99.90
26589;DHT22;14235;48.532;8.722;2022-09-25T14:08:07;15.90;99.90
26589;DHT22;14235;48.532;8.722;2022-09-25T14:10:35;15.80;99.90
26589;DHT22;14235;48.532;8.722;2022-09-25T14:13:02;15.90;99.90
26589;DHT22;14235;48.532;8.722;2022-09-25T14:15:36;15.90;99.90
26589;DHT22;14235;48.532;8.722;2022-09-25T14:18:06;16.00;99.90
26589;DHT22;14235;48.532;8.722;2022-09-25T14:20:37;16.00;99.90
26589;DHT22;14235;48.532;8.722;2022-09-25T14:23:22;16.00;99.90
26589;DHT22;14235;48.532;8.722;2022-09-25T14:26:03;16.10;99.90
26589;DHT22;14235;48.532;8.722;2022-09-25T14:28:42;16.20;99.90
26589;DHT22;14235;48.532;8.722;2022-09-25T14:34:12;16.30;99.90
26589;DHT22;14235;48.532;8.722;2022-09-25T14:42:35;16.00;99.90
26589;DHT22;14235;48.532;8.722;2022-09-25T14:45:27;16.00;99.90
26589;DHT22;14235;48.532;8.722;2022-09-25T14:47:58;15.80;99.90
26589;DHT22;14235;48.532;8.722;2022-09-25T14:50:42;15.80;99.90
26589;DHT22;14235;48.532;8.722;2022-09-25T14:53:25;15.80;99.90
26589;DHT22;14235;48.532;8.722;2022-09-25T14:55:53;15.80;99.90
26589;DHT22;14235;48.532;8.722;2022-09-25T14:58:23;15.80;99.90
26589;DHT22;14235;48.532;8.722;2022-09-25T15:00:51;15.80;99.90
26589;DHT22;14235;48.532;8.722;2022-09-25T15:03:21;15.80;99.90
26589;DHT22;14235;48.532;8.722;2022-09-25T15:05:49;15.80;99.90
26589;DHT22;14235;48.532;8.722;2022-09-25T15:08:21;15.90;99.90
26589;DHT22;14235;48.532;8.722;2022-09-25T15:10:49;15.80;99.90
26589;DHT22;14235;48.532;8.722;2022-09-25T15:13:24;15.90;99.90
26589;DHT22;14235;48.532;8.722;2022-09-25T15:15:55;16.10;99.90
26589;DHT22;14235;48.532;8.722;2022-09-25T15:18:41;16.10;99.90
26589;DHT22;14235;48.532;8.722;2022-09-25T15:21:16;16.30;99.90
26589;DHT22;14235;48.532;8.722;2022-09-25T15:23:43;16.40;99.90
26589;DHT22;14235;48.532;8.722;2022-09-25T15:26:14;16.50;99.90
26589;DHT22;14235;48.532;8.722;2022-09-25T15:28:42;16.50;99.90
26589;DHT22;14235;48.532;8.722;2022-09-25T15:31:08;16.50;99.90
26589;DHT22;14235;48.532;8.722;2022-09-25T15:33:35;16.30;99.90
26589;DHT22;14235;48.532;8.722;2022-09-25T15:36:18;16.30;99.90
26589;DHT22;14235;48.532;8.722;2022-09-25T15:38:54;16.20;99.90
26589;DHT22;14235;48.532;8.722;2022-09-25T15:41:22;16.10;99.90
26589;DHT22;14235;48.532;8.722;2022-09-25T15:43:50;16.00;99.90
26589;DHT22;14235;48.532;8.722;2022-09-25T15:48:57;15.80;99.90
26589;DHT22;14235;48.532;8.722;2022-09-25T15:51:25;15.80;99.90
26589;DHT22;14235;48.532;8.722;2022-09-25T15:54:02;15.80;99.90
26589;DHT22;14235;48.532;8.722;2022-09-25T15:56:50;15.70;99.90
26589;DHT22;14235;48.532;8.722;2022-09-25T15:59:18;15.80;99.90
26589;DHT22;14235;48.532;8.722;2022-09-25T16:01:46;15.70;99.90
26589;DHT22;14235;48.532;8.722;2022-09-25T16:04:30;15.70;99.90
26589;DHT22;14235;48.532;8.722;2022-09-25T16:07:31;15.60;99.90
26589;DHT22;14235;48.532;8.722;2022-09-25T16:10:01;15.50;99.90
26589;DHT22;14235;48.532;8.722;2022-09-25T16:12:32;15.50;99.90
26589;DHT22;14235;48.532;8.722;2022-09-25T16:15:34;15.40;99.90
26589;DHT22;14235;48.532;8.722;2022-09-25T16:17:58;15.30;99.90
26589;DHT22;14235;48.532;8.722;2022-09-25T16:20:36;15.20;99.90
26589;DHT22;14235;48.532;8.722;2022-09-25T16:23:05;14.60;99.90
26589;DHT22;14235;48.532;8.722;2022-09-25T16:25:42;15.10;99.90
26589;DHT22;14235;48.532;8.722;2022-09-25T16:28:15;14.90;99.90
26589;DHT22;14235;48.532;8.722;2022-09-25T16:31:04;14.80;99.90
26589;DHT22;14235;48.532;8.722;2022-09-25T16:33:35;14.90;99.90
26589;DHT22;14235;48.532;8.722;2022-09-25T16:36:13;14.70;99.90
26589;DHT22;14235;48.532;8.722;2022-09-25T16:38:41;14.60;99.90
26589;DHT22;14235;48.532;8.722;2022-09-25T16:48:39;14.10;99.90
26589;DHT22;14235;48.532;8.722;2022-09-25T16:51:22;14.10;99.90
26589;DHT22;14235;48.532;8.722;2022-09-25T16:53:48;14.00;99.90
26589;DHT22;14235;48.532;8.722;2022-09-25T16:56:22;14.00;99.90
26589;DHT22;14235;48.532;8.722;2022-09-25T16:58:48;13.90;99.90
26589;DHT22;14235;48.532;8.722;2022-09-25T17:01:15;14.00;99.90
26589;DHT22;14235;48.532;8.722;2022-09-25T17:03:41;13.90;99.90
26589;DHT22;14235;48.532;8.722;2022-09-25T17:06:22;13.90;99.90
26589;DHT22;14235;48.532;8.722;2022-09-25T17:08:48;13.80;99.90
26589;DHT22;14235;48.532;8.722;2022-09-25T17:11:15;13.80;99.90
26589;DHT22;14235;48.532;8.722;2022-09-25T17:13:42;13.80;99.90
26589;DHT22;14235;48.532;8.722;2022-09-25T17:16:09;13.70;99.90
26589;DHT22;14235;48.532;8.722;2022-09-25T17:18:35;13.80;99.90
26589;DHT22;14235;48.532;8.722;2022-09-25T17:21:03;13.70;99.90
26589;DHT22;14235;48.532;8.722;2022-09-25T17:23:29;13.70;99.90
26589;DHT22;14235;48.532;8.722;2022-09-25T17:26:01;13.70;99.90
26589;DHT22;14235;48.532;8.722;2022-09-25T17:28:27;13.70;99.90
26589;DHT22;14235;48.532;8.722;2022-09-25T17:30:53;13.60;99.90
26589;DHT22;14235;48.532;8.722;2022-09-25T17:33:21;13.70;99.90
26589;DHT22;14235;48.532;8.722;2022-09-25T17:36:01;13.60;99.90
26589;DHT22;14235;48.532;8.722;2022-09-25T17:38:31;13.60;99.90
26589;DHT22;14235;48.532;8.722;2022-09-25T17:40:59;13.50;99.90
26589;DHT22;14235;48.532;8.722;2022-09-25T17:43:25;13.50;99.90
26589;DHT22;14235;48.532;8.722;2022-09-25T17:45:53;13.50;99.90
26589;DHT22;14235;48.532;8.722;2022-09-25T17:51:00;13.50;99.90
26589;DHT22;14235;48.532;8.722;2022-09-25T17:53:28;13.40;99.90
26589;DHT22;14235;48.532;8.722;2022-09-25T17:55:55;13.40;99.90
26589;DHT22;14235;48.532;8.722;2022-09-25T17:58:22;13.40;99.90
26589;DHT22;14235;48.532;8.722;2022-09-25T18:00:49;13.40;99.90
26589;DHT22;14235;48.532;8.722;2022-09-25T18:03:15;13.30;99.90
26589;DHT22;14235;48.532;8.722;2022-09-25T18:05:42;13.30;99.90
26589;DHT22;14235;48.532;8.722;2022-09-25T18:08:09;13.30;99.90
26589;DHT22;14235;48.532;8.722;2022-09-25T18:10:35;13.30;99.90
26589;DHT22;14235;48.532;8.722;2022-09-25T18:13:02;13.30;99.90
26589;DHT22;14235;48.532;8.722;2022-09-25T18:15:29;13.30;99.90
26589;DHT22;14235;48.532;8.722;2022-09-25T18:17:55;13.40;99.90
26589;DHT22;14235;48.532;8.722;2022-09-25T18:20:21;13.40;99.90